Time;durP1;ratioP1;P1;durP2;ratioP2;P2;SDS_P1;SDS_P2;PMS_P1;PMS_P2;Temp;Humidity;BMP_temperature;BMP_pressure;BME280_temperature;BME280_humidity;BME280_pressure;Samples;Min_cycle;Max_cycle;Signal;HPM_P1;HPM_P2
2022/10/14 00:00:30;;;;;;;;;;;;;;;17.71;62.27;100506.72;4937589;28;7486;-84
2022/10/14 00:02:55;;;;;;;;;;;;;;;17.72;62.25;100511.94;4941299;28;8497;-84
2022/10/14 00:05:21;;;;;;;;;;;;;;;17.73;62.19;100507.63;4939135;28;6876;-84
2022/10/14 00:07:47;;;;;;;;;;;;;;;17.74;62.35;100509.38;4938687;28;7008;-84
2022/10/14 00:10:12;;;;;;;;;;;;;;;17.77;62.32;100514.63;4942947;28;7221;-83
2022/10/14 00:12:38;;;;;;;;;;;;;;;17.79;62.02;100506.88;4923593;28;8769;-84
2022/10/14 00:15:05;;;;;;;;;;;;;;;17.80;62.19;100500.84;4940122;28;6983;-84
2022/10/14 00:17:31;;;;;;;;;;;;;;;17.83;62.66;100498.34;4938122;28;9088;-83
2022/10/14 00:19:58;;;;;;;;;;;;;;;17.86;62.06;100501.81;4940130;28;6780;-84
2022/10/14 00:22:24;;;;;;;;;;;;;;;17.88;62.34;100496.69;4928948;28;8452;-84
2022/10/14 00:24:49;;;;;;;;;;;;;;;17.88;62.38;100502.75;4926792;28;8915;-83
2022/10/14 00:27:15;;;;;;;;;;;;;;;17.89;62.00;100501.91;4944811;28;6788;-84
2022/10/14 00:29:41;;;;;;;;;;;;;;;17.89;62.06;100499.31;4943067;28;8122;-83
2022/10/14 00:32:06;;;;;;;;;;;;;;;17.90;62.58;100501.06;4940156;28;6768;-82
2022/10/14 00:34:32;;;;;;;;;;;;;;;17.91;61.95;100502.81;4944192;28;6772;-84
2022/10/14 00:36:57;;;;;;;;;;;;;;;17.94;61.82;100501.13;4943904;28;6764;-84
2022/10/14 00:39:23;;;;;;;;;;;;;;;17.93;61.97;100497.66;4930345;28;8390;-84
2022/10/14 00:41:49;;;;;;;;;;;;;;;17.95;62.45;100497.66;4939912;28;6765;-84
2022/10/14 00:44:14;;;;;;;;;;;;;;;17.95;62.16;100500.25;4942970;28;6987;-82
2022/10/14 00:46:44;;;;;;;;;;;;;;;17.94;62.25;100485.56;4939257;28;6752;-81
2022/10/14 00:49:22;;;;;;;;;;;;;;;17.95;61.67;100498.56;4937301;28;8410;-84
2022/10/14 00:52:12;;;;;;;;;;;;;;;17.96;61.71;100489.03;4943469;28;6990;-84
2022/10/14 00:54:53;;;;;;;;;;;;;;;17.97;61.92;100491.69;4941826;28;6792;-83
2022/10/14 00:57:19;;;;;;;;;;;;;;;17.98;61.64;100482.19;4927954;28;8278;-84
2022/10/14 00:59:45;;;;;;;;;;;;;;;18.01;61.91;100477.06;4943307;28;6934;-83
2022/10/14 01:02:11;;;;;;;;;;;;;;;18.02;61.73;100466.72;4942671;28;7312;-81
2022/10/14 01:04:41;;;;;;;;;;;;;;;18.03;62.28;100463.31;4941434;28;6961;-84
2022/10/14 01:07:28;;;;;;;;;;;;;;;18.07;62.35;100460.75;4941592;28;7248;-84
2022/10/14 01:10:14;;;;;;;;;;;;;;;18.06;62.51;100464.22;4942001;28;6950;-81
2022/10/14 01:13:13;;;;;;;;;;;;;;;18.07;61.95;100463.34;4922880;28;6999;-84
2022/10/14 01:16:04;;;;;;;;;;;;;;;18.05;61.94;100463.31;4925848;28;8741;-84
2022/10/14 01:19:04;;;;;;;;;;;;;;;18.08;62.45;100458.22;4939233;28;6959;-82
2022/10/14 01:21:46;;;;;;;;;;;;;;;18.11;62.03;100458.25;4901334;28;7192;-83
2022/10/14 01:25:01;;;;;;;;;;;;;;;18.15;61.74;100460.03;4941613;28;7039;-81
2022/10/14 01:27:46;;;;;;;;;;;;;;;18.21;62.31;100453.22;4944490;28;7216;-83
2022/10/14 01:30:16;;;;;;;;;;;;;;;18.23;62.33;100441.16;4940848;28;7200;-82
2022/10/14 01:33:05;;;;;;;;;;;;;;;18.27;61.91;100443.81;4925987;28;8764;-84
2022/10/14 01:35:31;;;;;;;;;;;;;;;18.25;61.87;100439.44;4939933;28;7368;-83
2022/10/14 01:38:05;;;;;;;;;;;;;;;18.26;61.69;100436.03;4938525;28;8798;-84
2022/10/14 01:40:38;;;;;;;;;;;;;;;18.28;61.40;100430.00;4941608;28;8654;-81
2022/10/14 01:43:05;;;;;;;;;;;;;;;18.28;61.74;100426.56;4937914;28;8843;-82
2022/10/14 01:45:35;;;;;;;;;;;;;;;18.30;62.30;100422.25;4942801;28;6800;-84
2022/10/14 01:48:05;;;;;;;;;;;;;;;18.29;61.59;100416.19;4926528;28;6948;-83
2022/10/14 01:50:35;;;;;;;;;;;;;;;18.32;61.30;100423.16;4942674;28;7218;-82
2022/10/14 01:53:17;;;;;;;;;;;;;;;18.32;61.27;100418.84;4931149;28;7280;-84
2022/10/14 01:55:47;;;;;;;;;;;;;;;18.34;61.67;100424.03;4939809;28;6987;-84
2022/10/14 01:58:16;;;;;;;;;;;;;;;18.36;61.80;100418.88;4942417;28;6797;-80
2022/10/14 02:00:42;;;;;;;;;;;;;;;18.38;61.24;100419.78;4937901;28;6788;-84
2022/10/14 02:03:12;;;;;;;;;;;;;;;18.39;61.63;100412.03;4940645;28;6852;-84
2022/10/14 02:05:49;;;;;;;;;;;;;;;18.41;61.24;100415.53;4937975;28;8452;-84
2022/10/14 02:08:35;;;;;;;;;;;;;;;18.40;61.22;100413.78;4936893;28;6793;-84
2022/10/14 02:11:14;;;;;;;;;;;;;;;18.42;61.71;100412.06;4937884;28;7115;-83
2022/10/14 02:13:51;;;;;;;;;;;;;;;18.42;61.27;100414.66;4933984;28;6880;-84
2022/10/14 02:16:24;;;;;;;;;;;;;;;18.42;61.58;100419.84;4938673;28;8539;-83
2022/10/14 02:19:07;;;;;;;;;;;;;;;18.44;61.71;100412.97;4938155;28;7227;-84
2022/10/14 02:21:50;;;;;;;;;;;;;;;18.44;61.47;100415.56;4930219;28;6970;-83
2022/10/14 02:24:31;;;;;;;;;;;;;;;18.45;61.26;100412.13;4937888;28;6983;-82
2022/10/14 02:27:04;;;;;;;;;;;;;;;18.49;61.47;100412.19;4937598;28;7352;-84
2022/10/14 02:29:32;;;;;;;;;;;;;;;18.50;61.37;100399.25;4938210;28;7306;-82
2022/10/14 02:32:01;;;;;;;;;;;;;;;18.55;61.24;100401.91;4940420;28;8935;-84
2022/10/14 02:34:27;;;;;;;;;;;;;;;18.55;61.41;100396.72;4941018;28;7052;-80
2022/10/14 02:36:55;;;;;;;;;;;;;;;18.54;61.21;100388.03;4940544;28;7100;-84
2022/10/14 02:39:31;;;;;;;;;;;;;;;18.56;61.39;100382.88;4930390;28;8673;-84
2022/10/14 02:41:57;;;;;;;;;;;;;;;18.55;61.43;100382.00;4938473;28;6973;-84
2022/10/14 02:44:23;;;;;;;;;;;;;;;18.52;60.88;100383.66;4938348;28;6772;-84
2022/10/14 02:46:49;;;;;;;;;;;;;;;18.52;61.64;100387.16;4938013;28;8500;-83
2022/10/14 02:49:16;;;;;;;;;;;;;;;18.50;61.57;100386.25;4939101;28;6772;-83
2022/10/14 02:51:42;;;;;;;;;;;;;;;18.48;60.88;100374.97;4940497;28;6800;-84
2022/10/14 02:54:07;;;;;;;;;;;;;;;18.49;60.88;100375.84;4940056;28;8240;-84
2022/10/14 02:56:33;;;;;;;;;;;;;;;18.46;61.32;100379.25;4925789;28;8659;-83
2022/10/14 02:58:58;;;;;;;;;;;;;;;18.44;60.89;100376.63;4944249;28;7011;-84
2022/10/14 03:01:24;;;;;;;;;;;;;;;18.43;61.53;100372.28;4941856;28;6816;-83
2022/10/14 03:03:50;;;;;;;;;;;;;;;18.42;60.89;100380.94;4940273;28;6780;-84
2022/10/14 03:06:15;;;;;;;;;;;;;;;18.42;61.61;100380.06;4941886;28;6768;-83
2022/10/14 03:08:41;;;;;;;;;;;;;;;18.42;61.33;100374.88;4941270;28;7313;-83
2022/10/14 03:11:06;;;;;;;;;;;;;;;18.40;61.43;100368.81;4939038;28;6776;-83
2022/10/14 03:13:32;;;;;;;;;;;;;;;18.41;61.16;100368.81;4937212;28;6963;-83
2022/10/14 03:15:58;;;;;;;;;;;;;;;18.40;61.21;100363.63;4936895;28;9433;-83
2022/10/14 03:18:24;;;;;;;;;;;;;;;18.38;61.53;100358.41;4936867;28;6998;-84
2022/10/14 03:20:49;;;;;;;;;;;;;;;18.35;61.35;100358.38;4927288;28;8470;-84
2022/10/14 03:23:15;;;;;;;;;;;;;;;18.33;61.47;100360.03;4938916;28;8768;-81
2022/10/14 03:25:43;;;;;;;;;;;;;;;18.30;61.17;100357.41;4941202;28;6923;-84
2022/10/14 03:28:10;;;;;;;;;;;;;;;18.27;61.51;100350.44;4931608;28;8546;-82
2022/10/14 03:30:36;;;;;;;;;;;;;;;18.23;61.80;100342.59;4939067;28;6793;-83
2022/10/14 03:33:02;;;;;;;;;;;;;;;18.20;61.81;100347.72;4927086;28;8443;-83
2022/10/14 03:35:27;;;;;;;;;;;;;;;18.17;61.55;100351.16;4923996;28;7624;-83
2022/10/14 03:37:54;;;;;;;;;;;;;;;18.17;61.69;100356.34;4937435;28;6948;-83
2022/10/14 03:40:21;;;;;;;;;;;;;;;18.17;61.45;100343.38;4927688;29;8995;-80
2022/10/14 03:42:47;;;;;;;;;;;;;;;18.18;61.99;100334.72;4930691;28;7549;-83
2022/10/14 03:45:12;;;;;;;;;;;;;;;18.21;61.71;100331.31;4938798;28;6800;-83
2022/10/14 03:47:38;;;;;;;;;;;;;;;18.21;62.20;100336.50;4940761;28;8738;-83
2022/10/14 03:50:05;;;;;;;;;;;;;;;18.21;61.82;100342.59;4938695;28;6848;-81
2022/10/14 03:52:31;;;;;;;;;;;;;;;18.22;61.96;100340.84;4906244;29;6982;-83
2022/10/14 03:54:58;;;;;;;;;;;;;;;18.24;61.59;100339.13;4923315;28;6997;-81
2022/10/14 03:57:23;;;;;;;;;;;;;;;18.23;62.25;100343.47;4940734;28;6978;-84
2022/10/14 03:59:49;;;;;;;;;;;;;;;18.21;61.61;100332.22;4942047;28;7712;-80
2022/10/14 04:02:15;;;;;;;;;;;;;;;18.18;62.02;100335.63;4938307;28;6827;-84
2022/10/14 04:04:40;;;;;;;;;;;;;;;18.15;61.82;100340.72;4940577;28;8739;-83
2022/10/14 04:07:07;;;;;;;;;;;;;;;18.11;62.23;100338.97;4942135;28;8732;-84
2022/10/14 04:09:33;;;;;;;;;;;;;;;18.10;62.06;100328.53;4937703;28;6842;-82
2022/10/14 04:11:58;;;;;;;;;;;;;;;18.07;61.94;100334.59;4926387;28;6796;-82
2022/10/14 04:14:25;;;;;;;;;;;;;;;18.05;61.98;100328.47;4940718;28;7083;-84
2022/10/14 04:16:51;;;;;;;;;;;;;;;18.06;62.18;100334.53;4940423;28;6868;-81
2022/10/14 04:19:18;;;;;;;;;;;;;;;18.07;62.43;100332.00;4936794;28;6883;-83
2022/10/14 04:21:44;;;;;;;;;;;;;;;18.07;62.14;100332.00;4933250;28;7215;-83
2022/10/14 04:24:09;;;;;;;;;;;;;;;18.07;62.23;100331.09;4929924;28;8796;-84
2022/10/14 04:26:35;;;;;;;;;;;;;;;18.05;62.49;100318.09;4942942;28;6792;-84
2022/10/14 04:29:01;;;;;;;;;;;;;;;18.04;62.25;100322.44;4938873;28;7882;-81
2022/10/14 04:31:27;;;;;;;;;;;;;;;18.06;62.32;100311.22;4930347;28;8397;-83
2022/10/14 04:33:53;;;;;;;;;;;;;;;18.06;62.26;100316.38;4939408;28;6796;-81
2022/10/14 04:36:19;;;;;;;;;;;;;;;18.07;61.91;100308.66;4942992;28;7925;-83
2022/10/14 04:38:44;;;;;;;;;;;;;;;18.08;62.03;100307.78;4943120;28;7287;-84
2022/10/14 04:41:10;;;;;;;;;;;;;;;18.10;61.93;100306.09;4946115;28;6899;-83
2022/10/14 04:43:35;;;;;;;;;;;;;;;18.09;61.97;100304.34;4938675;28;9759;-81
2022/10/14 04:46:01;;;;;;;;;;;;;;;18.11;61.71;100312.16;4926314;28;8518;-82
2022/10/14 04:48:27;;;;;;;;;;;;;;;18.11;62.01;100307.84;4946244;28;6959;-83
2022/10/14 04:50:53;;;;;;;;;;;;;;;18.11;62.24;100307.84;4937185;28;7218;-81
2022/10/14 04:53:20;;;;;;;;;;;;;;;18.13;61.91;100300.94;4944390;28;6956;-83
2022/10/14 04:55:48;;;;;;;;;;;;;;;18.15;61.95;100298.38;4938393;28;7377;-83
2022/10/14 04:58:15;;;;;;;;;;;;;;;18.16;62.00;100301.00;4923120;28;6784;-83
2022/10/14 05:00:41;;;;;;;;;;;;;;;18.21;62.11;100302.78;4930011;28;6792;-82
2022/10/14 05:03:07;;;;;;;;;;;;;;;18.21;61.98;100297.59;4928520;28;6776;-83
2022/10/14 05:05:34;;;;;;;;;;;;;;;18.25;61.87;100289.00;4943518;28;6792;-84
2022/10/14 05:07:59;;;;;;;;;;;;;;;18.28;61.98;100291.66;4940829;28;7122;-83
2022/10/14 05:10:25;;;;;;;;;;;;;;;18.32;61.27;100285.66;4943477;28;6764;-82
2022/10/14 05:12:51;;;;;;;;;;;;;;;18.34;61.78;100283.94;4942402;28;7204;-83
2022/10/14 05:15:17;;;;;;;;;;;;;;;18.37;61.56;100284.00;4941435;28;6777;-83
2022/10/14 05:17:43;;;;;;;;;;;;;;;18.41;61.14;100283.19;4944517;28;7071;-81
2022/10/14 05:20:11;;;;;;;;;;;;;;;18.44;61.52;100284.97;4944507;28;6800;-83
2022/10/14 05:22:37;;;;;;;;;;;;;;;18.44;61.28;100285.81;4943709;28;6788;-81
2022/10/14 05:25:04;;;;;;;;;;;;;;;18.44;61.31;100280.63;4943055;28;7842;-83
2022/10/14 05:27:29;;;;;;;;;;;;;;;18.45;61.49;100279.81;4946113;28;7122;-82
2022/10/14 05:29:55;;;;;;;;;;;;;;;18.49;61.33;100283.28;4935342;28;7746;-83
2022/10/14 05:32:21;;;;;;;;;;;;;;;18.50;61.13;100279.88;4939536;28;7075;-81
2022/10/14 05:34:47;;;;;;;;;;;;;;;18.52;61.40;100282.47;4942562;28;7167;-84
2022/10/14 05:37:13;;;;;;;;;;;;;;;18.51;61.44;100273.81;4927038;28;8473;-83
2022/10/14 05:39:38;;;;;;;;;;;;;;;18.52;60.97;100274.69;4938570;28;8639;-84
2022/10/14 05:42:04;;;;;;;;;;;;;;;18.52;60.78;100282.47;4930223;28;8459;-84
2022/10/14 05:44:30;;;;;;;;;;;;;;;18.51;61.54;100275.53;4922688;28;6776;-83
2022/10/14 05:46:55;;;;;;;;;;;;;;;18.52;61.47;100272.97;4937011;28;6783;-83
2022/10/14 05:49:21;;;;;;;;;;;;;;;18.50;60.99;100269.50;4940259;28;6772;-81
2022/10/14 05:51:47;;;;;;;;;;;;;;;18.50;61.52;100271.19;4939345;28;6792;-83
2022/10/14 05:54:12;;;;;;;;;;;;;;;18.49;61.21;100265.13;4938168;28;8642;-84
2022/10/14 05:56:38;;;;;;;;;;;;;;;18.50;61.03;100268.59;4938993;28;6792;-84
2022/10/14 05:59:04;;;;;;;;;;;;;;;18.49;61.94;100270.31;4939224;28;6930;-83
2022/10/14 06:01:33;;;;;;;;;;;;;;;18.49;60.99;100269.47;4921540;28;8637;-83
2022/10/14 06:03:59;;;;;;;;;;;;;;;18.49;61.04;100262.53;4943611;28;7280;-85
2022/10/14 06:06:24;;;;;;;;;;;;;;;18.50;61.06;100268.59;4939484;28;7119;-83
2022/10/14 06:08:50;;;;;;;;;;;;;;;18.46;61.15;100258.19;4939532;28;6984;-84
2022/10/14 06:11:16;;;;;;;;;;;;;;;18.43;61.25;100245.16;4932229;28;6950;-83
2022/10/14 06:13:41;;;;;;;;;;;;;;;18.42;61.49;100250.34;4939607;28;6933;-84
2022/10/14 06:16:09;;;;;;;;;;;;;;;18.40;61.20;100247.72;4938049;28;7023;-84
2022/10/14 06:18:36;;;;;;;;;;;;;;;18.40;61.87;100252.91;4942186;28;7142;-83
2022/10/14 06:21:03;;;;;;;;;;;;;;;18.39;61.60;100251.16;4940031;28;7327;-85
2022/10/14 06:23:28;;;;;;;;;;;;;;;18.37;61.12;100246.81;4914744;28;8374;-83
2022/10/14 06:25:54;;;;;;;;;;;;;;;18.34;61.35;100242.44;4939130;28;6776;-84
2022/10/14 06:28:20;;;;;;;;;;;;;;;18.35;61.77;100240.72;4941439;28;6788;-83
2022/10/14 06:30:53;;;;;;;;;;;;;;;18.34;61.46;100242.44;4939631;28;7197;-81
2022/10/14 06:33:20;;;;;;;;;;;;;;;18.35;62.02;100243.31;4941763;28;7864;-82
2022/10/14 06:35:47;;;;;;;;;;;;;;;18.36;62.12;100240.75;4941348;28;6780;-84
2022/10/14 06:38:13;;;;;;;;;;;;;;;18.39;61.55;100225.22;4923886;28;7153;-83
2022/10/14 06:40:38;;;;;;;;;;;;;;;18.42;61.52;100225.25;4941794;28;6961;-83
2022/10/14 06:43:04;;;;;;;;;;;;;;;18.46;61.90;100227.06;4936651;28;7841;-81
2022/10/14 06:45:31;;;;;;;;;;;;;;;18.49;61.69;100214.97;4942053;28;6792;-84
2022/10/14 06:47:56;;;;;;;;;;;;;;;18.54;61.92;100210.69;4943052;28;8703;-82
2022/10/14 06:50:22;;;;;;;;;;;;;;;18.57;62.00;100209.00;4934787;28;6788;-84
2022/10/14 06:52:48;;;;;;;;;;;;;;;18.62;62.06;100216.00;4941736;28;6776;-84
2022/10/14 06:55:14;;;;;;;;;;;;;;;18.67;61.66;100210.00;4934792;28;8623;-84
2022/10/14 06:57:40;;;;;;;;;;;;;;;18.73;62.16;100206.59;4937919;28;8505;-84
2022/10/14 07:00:07;;;;;;;;;;;;;;;18.83;61.45;100195.47;4940175;28;7899;-84
2022/10/14 07:02:33;;;;;;;;;;;;;;;18.90;61.94;100196.38;4939550;28;6971;-81
2022/10/14 07:04:58;;;;;;;;;;;;;;;18.97;61.65;100197.31;4938703;28;6804;-81
2022/10/14 07:07:24;;;;;;;;;;;;;;;19.04;62.15;100193.97;4940230;28;7135;-84
2022/10/14 07:09:50;;;;;;;;;;;;;;;19.11;61.32;100192.28;4928281;28;9736;-82
2022/10/14 07:12:15;;;;;;;;;;;;;;;19.19;61.21;100193.25;4938886;28;8901;-84
2022/10/14 07:14:41;;;;;;;;;;;;;;;19.26;61.83;100199.34;4928633;28;9503;-84
2022/10/14 07:17:07;;;;;;;;;;;;;;;19.34;61.66;100202.03;4938450;28;7399;-84
2022/10/14 07:19:33;;;;;;;;;;;;;;;19.40;61.82;100197.75;4941432;28;7013;-84
2022/10/14 07:21:59;;;;;;;;;;;;;;;19.47;61.54;100198.69;4944194;28;8441;-84
2022/10/14 07:24:25;;;;;;;;;;;;;;;19.56;61.17;100197.91;4935825;28;6999;-84
2022/10/14 07:26:51;;;;;;;;;;;;;;;19.63;61.10;100211.81;4921047;28;8663;-81
2022/10/14 07:29:17;;;;;;;;;;;;;;;19.68;60.70;100204.91;4940786;28;7263;-84
2022/10/14 07:31:43;;;;;;;;;;;;;;;19.72;60.68;100198.88;4937762;28;7314;-84
2022/10/14 07:34:08;;;;;;;;;;;;;;;19.77;60.27;100204.09;4939955;28;7191;-83
2022/10/14 07:36:35;;;;;;;;;;;;;;;19.77;60.32;100202.38;4938155;28;7209;-84
2022/10/14 07:39:01;;;;;;;;;;;;;;;19.77;59.90;100197.16;4919287;28;8784;-83
2022/10/14 07:41:27;;;;;;;;;;;;;;;19.79;60.46;100198.03;4933785;28;7165;-82
2022/10/14 07:44:04;;;;;;;;;;;;;;;19.79;60.31;100203.22;4942015;28;7245;-84
2022/10/14 07:46:33;;;;;;;;;;;;;;;19.82;60.07;100208.47;4938582;28;6804;-84
2022/10/14 07:49:03;;;;;;;;;;;;;;;19.83;59.99;100209.31;4940368;28;6996;-84
2022/10/14 07:51:29;;;;;;;;;;;;;;;19.83;59.75;100205.00;4920179;29;6983;-83
2022/10/14 07:53:58;;;;;;;;;;;;;;;19.85;59.93;100212.84;4937091;28;8035;-84
2022/10/14 07:56:24;;;;;;;;;;;;;;;19.84;59.48;100209.34;4938588;28;6961;-83
2022/10/14 07:58:49;;;;;;;;;;;;;;;19.88;59.80;100209.38;4939580;28;6971;-83
2022/10/14 08:01:17;;;;;;;;;;;;;;;19.90;59.47;100212.88;4940494;28;7162;-82
2022/10/14 08:03:45;;;;;;;;;;;;;;;19.92;59.85;100212.00;4923467;29;6804;-83
2022/10/14 08:06:12;;;;;;;;;;;;;;;19.95;60.02;100211.19;4920418;29;7289;-84
2022/10/14 08:08:39;;;;;;;;;;;;;;;19.99;60.08;100194.75;4938948;28;6946;-83
2022/10/14 08:11:16;;;;;;;;;;;;;;;20.04;60.11;100194.75;4920195;28;7015;-83
2022/10/14 08:13:42;;;;;;;;;;;;;;;20.10;59.80;100194.78;4935999;28;8130;-82
2022/10/14 08:16:27;;;;;;;;;;;;;;;20.17;59.74;100186.16;4939106;28;8749;-84
2022/10/14 08:18:57;;;;;;;;;;;;;;;20.22;59.34;100194.00;4932971;28;8494;-84
2022/10/14 08:21:26;;;;;;;;;;;;;;;20.25;59.37;100188.78;4918900;28;9491;-81
2022/10/14 08:23:53;;;;;;;;;;;;;;;20.29;59.39;100180.16;4920483;28;8567;-83
2022/10/14 08:26:25;;;;;;;;;;;;;;;20.35;58.88;100177.56;4938791;28;7034;-84
2022/10/14 08:28:51;;;;;;;;;;;;;;;20.40;59.18;100178.47;4941581;28;6969;-84
2022/10/14 08:31:17;;;;;;;;;;;;;;;20.44;59.08;100162.84;4931344;28;6844;-83
2022/10/14 08:33:42;;;;;;;;;;;;;;;20.47;58.41;100168.06;4938908;28;6768;-83
2022/10/14 08:36:08;;;;;;;;;;;;;;;20.48;58.70;100165.47;4939404;28;6924;-81
2022/10/14 08:38:34;;;;;;;;;;;;;;;20.47;58.26;100171.53;4937178;28;6788;-84
2022/10/14 08:41:32;;;;;;;;;;;;;;;20.46;58.05;100159.41;4926842;28;8892;-83
2022/10/14 08:44:23;;;;;;;;;;;;;;;20.45;58.81;100160.25;4942082;28;8420;-84
2022/10/14 08:47:00;;;;;;;;;;;;;;;20.47;58.39;100163.75;4942888;28;8482;-82
2022/10/14 08:49:51;;;;;;;;;;;;;;;20.49;58.18;100166.34;4942037;28;6804;-84
2022/10/14 08:52:44;;;;;;;;;;;;;;;20.47;58.04;100157.66;4939730;28;7205;-84
2022/10/14 08:55:38;;;;;;;;;;;;;;;20.47;57.81;100157.66;4945832;28;7219;-84
2022/10/14 08:58:21;;;;;;;;;;;;;;;20.50;57.79;100149.88;4936358;28;7354;-81
2022/10/14 09:00:51;;;;;;;;;;;;;;;20.55;58.28;100153.34;4929354;28;6814;-82
2022/10/14 09:03:31;;;;;;;;;;;;;;;20.60;58.09;100154.22;4940070;28;7475;-83
2022/10/14 09:06:09;;;;;;;;;;;;;;;20.63;57.50;100149.03;4944785;28;6824;-84
2022/10/14 09:08:44;;;;;;;;;;;;;;;20.65;57.66;100149.03;4941104;28;6898;-85
2022/10/14 09:11:16;;;;;;;;;;;;;;;20.64;57.26;100150.75;4943683;28;7288;-84
2022/10/14 09:13:56;;;;;;;;;;;;;;;20.64;57.60;100150.75;4924705;28;7255;-84
2022/10/14 09:16:34;;;;;;;;;;;;;;;20.68;57.61;100155.13;4941903;28;7081;-82
2022/10/14 09:19:40;;;;;;;;;;;;;;;20.71;57.58;100150.78;4941305;28;7496;-83
2022/10/14 09:22:13;;;;;;;;;;;;;;;20.70;57.52;100138.63;4913759;28;6995;-83
2022/10/14 09:24:40;;;;;;;;;;;;;;;20.71;57.26;100142.97;4921958;28;8778;-83
2022/10/14 09:27:15;;;;;;;;;;;;;;;20.72;57.80;100137.78;4946169;28;7176;-83
2022/10/14 09:29:53;;;;;;;;;;;;;;;20.74;58.13;100142.97;4939547;28;7037;-84
2022/10/14 09:32:43;;;;;;;;;;;;;;;20.77;58.10;100145.59;4939918;28;6975;-83
2022/10/14 09:35:28;;;;;;;;;;;;;;;20.79;57.77;100146.47;4940212;28;7030;-82
2022/10/14 09:37:54;;;;;;;;;;;;;;;20.84;57.93;100152.56;4940358;28;8322;-83
2022/10/14 09:40:44;;;;;;;;;;;;;;;20.83;57.36;100150.84;4930324;28;8521;-83
2022/10/14 09:43:10;;;;;;;;;;;;;;;20.79;57.41;100151.69;4931610;28;8513;-82
2022/10/14 09:46:09;;;;;;;;;;;;;;;20.77;57.31;100151.66;4937348;28;7659;-83
2022/10/14 09:48:45;;;;;;;;;;;;;;;20.76;57.29;100149.03;4919117;28;6976;-81
2022/10/14 09:51:26;;;;;;;;;;;;;;;20.75;57.54;100147.31;4940385;28;7222;-81
2022/10/14 09:53:56;;;;;;;;;;;;;;;20.72;57.97;100143.00;4922126;28;7430;-82
2022/10/14 09:56:40;;;;;;;;;;;;;;;20.66;57.81;100145.56;4935481;28;9234;-83
2022/10/14 09:59:48;;;;;;;;;;;;;;;20.58;58.31;100139.47;4931847;28;8697;-84
2022/10/14 10:02:40;;;;;;;;;;;;;;;20.50;58.38;100139.47;4914689;28;8455;-85
2022/10/14 10:05:30;;;;;;;;;;;;;;;20.40;58.05;100125.53;4932698;28;7265;-82
2022/10/14 10:08:18;;;;;;;;;;;;;;;20.31;58.48;100128.97;4941827;28;7292;-82
2022/10/14 10:11:08;;;;;;;;;;;;;;;20.25;58.85;100126.34;4937586;28;6874;-80
2022/10/14 10:13:45;;;;;;;;;;;;;;;20.20;59.11;100123.72;4921946;28;6845;-83
2022/10/14 10:16:20;;;;;;;;;;;;;;;20.20;59.03;100126.34;4933109;28;7472;-85
2022/10/14 10:18:46;;;;;;;;;;;;;;;20.20;59.20;100128.09;4918910;28;8505;-84
2022/10/14 10:21:31;;;;;;;;;;;;;;;20.21;59.04;100117.66;4938516;28;7078;-80
2022/10/14 10:24:02;;;;;;;;;;;;;;;20.25;59.57;100118.53;4938648;28;7015;-80
2022/10/14 10:26:32;;;;;;;;;;;;;;;20.29;59.73;100116.81;4924756;28;7162;-85
2022/10/14 10:29:02;;;;;;;;;;;;;;;20.36;60.21;100110.78;4933962;28;7021;-83
2022/10/14 10:32:05;;;;;;;;;;;;;;;20.47;59.96;100116.00;4926228;28;8685;-83
2022/10/14 10:35:10;;;;;;;;;;;;;;;20.67;60.26;100114.34;4929403;28;7253;-84
2022/10/14 10:38:08;;;;;;;;;;;;;;;20.84;60.16;100103.09;4937151;28;7006;-82
2022/10/14 10:40:45;;;;;;;;;;;;;;;20.97;60.08;100105.72;4915931;28;8628;-84
2022/10/14 10:43:52;;;;;;;;;;;;;;;21.09;59.67;100095.28;4939243;28;8538;-86
2022/10/14 10:46:50;;;;;;;;;;;;;;;21.20;59.75;100093.53;4935122;28;7398;-85
2022/10/14 10:50:11;;;;;;;;;;;;;;;21.32;59.74;100090.06;4926357;28;7259;-83
2022/10/14 10:53:05;;;;;;;;;;;;;;;21.44;59.70;100088.31;4936163;28;7166;-85
2022/10/14 10:56:25;;;;;;;;;;;;;;;21.53;59.19;100079.56;4936060;28;6965;-84
2022/10/14 10:59:29;;;;;;;;;;;;;;;21.61;59.07;100088.25;4932550;28;7148;-83
2022/10/14 11:02:25;;;;;;;;;;;;;;;21.65;58.91;100084.78;4934325;28;7298;-84
2022/10/14 11:05:04;;;;;;;;;;;;;;;21.65;58.82;100080.41;4938745;28;7215;-85
2022/10/14 11:13:54;;;;;;;;;;;;;;;21.65;58.76;100074.34;4941108;28;7247;-84
2022/10/14 11:16:52;;;;;;;;;;;;;;;21.59;58.75;100070.03;4938040;28;8969;-86
2022/10/14 11:19:57;;;;;;;;;;;;;;;21.43;58.82;100069.16;4937750;28;7004;-85
2022/10/14 11:23:11;;;;;;;;;;;;;;;21.30;59.09;100072.69;4940723;28;7401;-85
2022/10/14 11:25:49;;;;;;;;;;;;;;;21.19;59.51;100065.75;4940487;28;7265;-86
2022/10/14 11:28:29;;;;;;;;;;;;;;;21.14;59.53;100066.63;4944630;28;7031;-85
2022/10/14 11:31:19;;;;;;;;;;;;;;;21.12;60.02;100064.00;4926593;28;8748;-87
2022/10/14 11:34:02;;;;;;;;;;;;;;;21.08;59.85;100062.28;4937134;28;7227;-86
2022/10/14 11:36:55;;;;;;;;;;;;;;;21.06;59.86;100059.69;4933218;28;7308;-83
2022/10/14 11:39:59;;;;;;;;;;;;;;;21.01;60.24;100055.34;4921789;29;8468;-85
2022/10/14 11:42:33;;;;;;;;;;;;;;;20.93;60.19;100050.16;4937658;28;7102;-80
2022/10/14 11:45:33;;;;;;;;;;;;;;;20.88;60.53;100044.94;4938880;28;7245;-80
2022/10/14 11:48:31;;;;;;;;;;;;;;;20.88;60.59;100057.06;4936971;28;8515;-83
2022/10/14 11:51:28;;;;;;;;;;;;;;;20.86;60.83;100054.50;4921996;28;6966;-84
2022/10/14 11:54:11;;;;;;;;;;;;;;;20.83;60.37;100045.81;4930169;28;6845;-83
2022/10/14 11:57:04;;;;;;;;;;;;;;;20.82;60.75;100047.53;4938691;28;7239;-83
2022/10/14 11:59:46;;;;;;;;;;;;;;;20.83;61.05;100040.59;4932311;28;7064;-82
2022/10/14 12:02:53;;;;;;;;;;;;;;;20.85;60.46;100038.84;4930906;28;7187;-83
2022/10/14 12:05:38;;;;;;;;;;;;;;;20.80;60.88;100029.25;4934300;28;8767;-80
2022/10/14 12:08:26;;;;;;;;;;;;;;;20.79;60.90;100035.34;4939232;28;7094;-84
2022/10/14 12:11:04;;;;;;;;;;;;;;;20.77;61.04;100031.88;4938838;28;7312;-84
2022/10/14 12:13:51;;;;;;;;;;;;;;;20.77;61.02;100024.06;4921910;29;6967;-83
2022/10/14 12:16:21;;;;;;;;;;;;;;;20.78;60.95;100024.94;4928965;28;7086;-83
2022/10/14 12:18:54;;;;;;;;;;;;;;;20.80;61.09;100021.44;4941230;28;8543;-84
2022/10/14 12:21:35;;;;;;;;;;;;;;;20.86;61.02;100020.63;4938302;28;8606;-85
2022/10/14 12:24:22;;;;;;;;;;;;;;;20.94;60.95;100007.59;4941040;28;7513;-85
2022/10/14 12:26:59;;;;;;;;;;;;;;;21.03;60.99;100006.72;4945022;28;7294;-80
2022/10/14 12:29:50;;;;;;;;;;;;;;;21.09;61.30;100001.50;4945339;28;7003;-84
2022/10/14 12:32:15;;;;;;;;;;;;;;;21.11;60.98;99998.91;4943557;28;7063;-84
2022/10/14 12:34:47;;;;;;;;;;;;;;;21.13;60.98;99992.78;4926471;28;8514;-83
2022/10/14 12:37:33;;;;;;;;;;;;;;;21.20;61.49;99988.47;4925276;28;8339;-81
2022/10/14 12:40:02;;;;;;;;;;;;;;;21.25;61.43;99988.44;4941786;28;7296;-85
2022/10/14 12:42:31;;;;;;;;;;;;;;;21.30;61.17;99990.16;4943032;28;7238;-81
2022/10/14 12:45:01;;;;;;;;;;;;;;;21.32;61.17;99972.78;4927247;28;8727;-82
2022/10/14 12:47:34;;;;;;;;;;;;;;;21.35;61.29;99961.47;4944814;28;6796;-85
2022/10/14 12:50:21;;;;;;;;;;;;;;;21.40;61.54;99964.94;4943661;28;6860;-80
2022/10/14 12:53:00;;;;;;;;;;;;;;;21.54;61.56;99962.25;4943561;28;8413;-85
2022/10/14 12:55:33;;;;;;;;;;;;;;;21.70;61.78;99965.69;4940727;28;7204;-82
2022/10/14 12:58:03;;;;;;;;;;;;;;;21.85;61.34;99961.28;4940423;28;7128;-84
2022/10/14 13:00:39;;;;;;;;;;;;;;;21.98;61.29;99962.09;4931498;28;7118;-84
2022/10/14 13:03:21;;;;;;;;;;;;;;;22.11;61.27;99960.25;4930432;28;8536;-85
2022/10/14 13:05:47;;;;;;;;;;;;;;;22.23;60.83;99960.19;4943903;28;7334;-82
2022/10/14 13:08:18;;;;;;;;;;;;;;;22.32;60.33;99954.00;4940441;28;6858;-85
2022/10/14 13:10:53;;;;;;;;;;;;;;;22.38;60.39;99948.75;4925448;28;8687;-85
2022/10/14 13:13:37;;;;;;;;;;;;;;;22.40;59.74;99948.72;4941614;28;7226;-79
2022/10/14 13:16:05;;;;;;;;;;;;;;;22.35;59.04;99951.38;4943360;28;7183;-84
2022/10/14 13:18:37;;;;;;;;;;;;;;;22.25;59.20;99954.94;4910175;28;8444;-81
2022/10/14 13:21:05;;;;;;;;;;;;;;;22.13;58.49;99950.69;4942664;28;8527;-82
2022/10/14 13:23:41;;;;;;;;;;;;;;;21.96;58.45;99940.34;4939733;28;8525;-84
2022/10/14 13:26:21;;;;;;;;;;;;;;;21.69;58.97;99937.88;4941485;28;7216;-85